sensor_id;sensor_type;location;lat;lon;timestamp;P1;durP1;ratioP1;P2;durP2;ratioP2
18162;SDS011;9206;50.994;4.538;2023-04-16T00:01:25;3.97;;;1.77;;
18162;SDS011;9206;50.994;4.538;2023-04-16T00:04:12;4.50;;;2.00;;
18162;SDS011;9206;50.994;4.538;2023-04-16T00:07:03;2.80;;;1.77;;
18162;SDS011;9206;50.994;4.538;2023-04-16T00:09:51;3.67;;;2.00;;
18162;SDS011;9206;50.994;4.538;2023-04-16T00:12:44;4.17;;;2.50;;
18162;SDS011;9206;50.994;4.538;2023-04-16T00:15:42;5.73;;;1.83;;
18162;SDS011;9206;50.994;4.538;2023-04-16T00:18:30;2.00;;;1.80;;
18162;SDS011;9206;50.994;4.538;2023-04-16T00:21:20;5.57;;;1.77;;
18162;SDS011;9206;50.994;4.538;2023-04-16T00:24:10;2.17;;;1.70;;
18162;SDS011;9206;50.994;4.538;2023-04-16T00:26:57;5.17;;;2.00;;
18162;SDS011;9206;50.994;4.538;2023-04-16T00:29:44;2.77;;;1.73;;
18162;SDS011;9206;50.994;4.538;2023-04-16T00:32:41;5.50;;;1.97;;
18162;SDS011;9206;50.994;4.538;2023-04-16T00:35:31;9.67;;;2.30;;
18162;SDS011;9206;50.994;4.538;2023-04-16T00:38:22;3.03;;;2.53;;
18162;SDS011;9206;50.994;4.538;2023-04-16T00:41:11;4.70;;;2.13;;
18162;SDS011;9206;50.994;4.538;2023-04-16T00:43:58;3.33;;;2.23;;
18162;SDS011;9206;50.994;4.538;2023-04-16T00:47:03;7.43;;;2.70;;
18162;SDS011;9206;50.994;4.538;2023-04-16T00:49:55;4.73;;;2.73;;
18162;SDS011;9206;50.994;4.538;2023-04-16T00:52:45;4.77;;;3.20;;
18162;SDS011;9206;50.994;4.538;2023-04-16T00:55:39;8.73;;;3.17;;
18162;SDS011;9206;50.994;4.538;2023-04-16T00:58:28;5.97;;;2.80;;
18162;SDS011;9206;50.994;4.538;2023-04-16T01:01:18;3.20;;;2.90;;
18162;SDS011;9206;50.994;4.538;2023-04-16T01:04:11;3.53;;;3.03;;
18162;SDS011;9206;50.994;4.538;2023-04-16T01:07:06;3.93;;;2.67;;
18162;SDS011;9206;50.994;4.538;2023-04-16T01:09:59;2.97;;;2.77;;
18162;SDS011;9206;50.994;4.538;2023-04-16T01:12:52;3.20;;;2.57;;
18162;SDS011;9206;50.994;4.538;2023-04-16T01:15:41;5.83;;;2.70;;
18162;SDS011;9206;50.994;4.538;2023-04-16T01:18:32;7.33;;;2.70;;
18162;SDS011;9206;50.994;4.538;2023-04-16T01:21:24;3.90;;;2.50;;
18162;SDS011;9206;50.994;4.538;2023-04-16T01:24:12;7.53;;;2.30;;
18162;SDS011;9206;50.994;4.538;2023-04-16T01:26:59;3.67;;;2.20;;
18162;SDS011;9206;50.994;4.538;2023-04-16T01:29:52;5.13;;;2.33;;
18162;SDS011;9206;50.994;4.538;2023-04-16T01:32:40;4.80;;;2.23;;
18162;SDS011;9206;50.994;4.538;2023-04-16T01:35:33;3.53;;;2.20;;
18162;SDS011;9206;50.994;4.538;2023-04-16T01:38:23;5.20;;;2.07;;
18162;SDS011;9206;50.994;4.538;2023-04-16T01:41:10;3.93;;;2.00;;
18162;SDS011;9206;50.994;4.538;2023-04-16T01:44:01;2.33;;;2.20;;
18162;SDS011;9206;50.994;4.538;2023-04-16T01:46:48;2.13;;;2.03;;
18162;SDS011;9206;50.994;4.538;2023-04-16T01:52:35;4.77;;;2.30;;
18162;SDS011;9206;50.994;4.538;2023-04-16T01:55:26;3.70;;;2.40;;
18162;SDS011;9206;50.994;4.538;2023-04-16T01:58:19;2.80;;;2.60;;
18162;SDS011;9206;50.994;4.538;2023-04-16T02:01:12;4.50;;;2.60;;
18162;SDS011;9206;50.994;4.538;2023-04-16T02:04:06;2.33;;;2.23;;
18162;SDS011;9206;50.994;4.538;2023-04-16T02:06:53;2.30;;;2.20;;
18162;SDS011;9206;50.994;4.538;2023-04-16T02:09:43;3.17;;;2.30;;
18162;SDS011;9206;50.994;4.538;2023-04-16T02:12:38;4.33;;;2.37;;
18162;SDS011;9206;50.994;4.538;2023-04-16T02:15:25;3.00;;;2.70;;
18162;SDS011;9206;50.994;4.538;2023-04-16T02:18:13;5.50;;;2.10;;
18162;SDS011;9206;50.994;4.538;2023-04-16T02:21:02;2.40;;;1.97;;
18162;SDS011;9206;50.994;4.538;2023-04-16T02:23:51;3.97;;;2.60;;
18162;SDS011;9206;50.994;4.538;2023-04-16T02:26:45;4.40;;;2.20;;
18162;SDS011;9206;50.994;4.538;2023-04-16T02:29:40;6.67;;;2.43;;
18162;SDS011;9206;50.994;4.538;2023-04-16T02:32:34;3.33;;;2.20;;
18162;SDS011;9206;50.994;4.538;2023-04-16T02:35:22;5.63;;;2.80;;
18162;SDS011;9206;50.994;4.538;2023-04-16T02:38:10;3.13;;;2.47;;
18162;SDS011;9206;50.994;4.538;2023-04-16T02:40:57;7.60;;;2.70;;
18162;SDS011;9206;50.994;4.538;2023-04-16T02:43:51;5.37;;;2.63;;
18162;SDS011;9206;50.994;4.538;2023-04-16T02:46:46;9.57;;;3.13;;
18162;SDS011;9206;50.994;4.538;2023-04-16T02:49:33;6.23;;;2.73;;
18162;SDS011;9206;50.994;4.538;2023-04-16T02:52:27;6.50;;;2.80;;
18162;SDS011;9206;50.994;4.538;2023-04-16T02:55:15;4.43;;;2.50;;
18162;SDS011;9206;50.994;4.538;2023-04-16T03:01:03;4.77;;;2.70;;
18162;SDS011;9206;50.994;4.538;2023-04-16T03:03:54;3.93;;;3.00;;
18162;SDS011;9206;50.994;4.538;2023-04-16T03:06:47;10.97;;;3.30;;
18162;SDS011;9206;50.994;4.538;2023-04-16T03:09:38;3.60;;;3.17;;
18162;SDS011;9206;50.994;4.538;2023-04-16T03:12:26;5.43;;;3.23;;
18162;SDS011;9206;50.994;4.538;2023-04-16T03:15:19;7.17;;;4.33;;
18162;SDS011;9206;50.994;4.538;2023-04-16T03:18:18;7.00;;;4.20;;
18162;SDS011;9206;50.994;4.538;2023-04-16T03:21:07;8.73;;;4.17;;
18162;SDS011;9206;50.994;4.538;2023-04-16T03:24:00;4.57;;;4.20;;
18162;SDS011;9206;50.994;4.538;2023-04-16T03:26:47;6.67;;;4.90;;
18162;SDS011;9206;50.994;4.538;2023-04-16T03:29:41;9.40;;;4.70;;
18162;SDS011;9206;50.994;4.538;2023-04-16T03:35:19;11.87;;;4.83;;
18162;SDS011;9206;50.994;4.538;2023-04-16T03:38:08;5.53;;;5.13;;
18162;SDS011;9206;50.994;4.538;2023-04-16T03:40:55;5.70;;;5.20;;
18162;SDS011;9206;50.994;4.538;2023-04-16T03:43:48;7.27;;;6.13;;
18162;SDS011;9206;50.994;4.538;2023-04-16T03:46:36;7.80;;;6.10;;
18162;SDS011;9206;50.994;4.538;2023-04-16T03:49:36;9.33;;;5.90;;
18162;SDS011;9206;50.994;4.538;2023-04-16T03:52:25;6.47;;;5.87;;
18162;SDS011;9206;50.994;4.538;2023-04-16T03:55:14;6.30;;;5.80;;
18162;SDS011;9206;50.994;4.538;2023-04-16T03:58:01;5.57;;;5.17;;
18162;SDS011;9206;50.994;4.538;2023-04-16T04:00:51;8.83;;;5.97;;
18162;SDS011;9206;50.994;4.538;2023-04-16T04:03:39;9.63;;;6.00;;
18162;SDS011;9206;50.994;4.538;2023-04-16T04:06:29;6.50;;;5.97;;
18162;SDS011;9206;50.994;4.538;2023-04-16T04:09:18;7.40;;;5.43;;
18162;SDS011;9206;50.994;4.538;2023-04-16T04:12:06;7.07;;;5.60;;
18162;SDS011;9206;50.994;4.538;2023-04-16T04:15:00;10.70;;;5.93;;
18162;SDS011;9206;50.994;4.538;2023-04-16T04:17:47;8.57;;;6.60;;
18162;SDS011;9206;50.994;4.538;2023-04-16T04:20:37;6.87;;;6.17;;
18162;SDS011;9206;50.994;4.538;2023-04-16T04:23:25;6.67;;;6.17;;
18162;SDS011;9206;50.994;4.538;2023-04-16T04:26:18;15.03;;;6.97;;
18162;SDS011;9206;50.994;4.538;2023-04-16T04:29:08;11.20;;;6.87;;
18162;SDS011;9206;50.994;4.538;2023-04-16T04:35:02;9.20;;;6.63;;
18162;SDS011;9206;50.994;4.538;2023-04-16T04:37:49;9.13;;;6.23;;
18162;SDS011;9206;50.994;4.538;2023-04-16T04:40:36;11.67;;;6.70;;
18162;SDS011;9206;50.994;4.538;2023-04-16T04:43:25;12.53;;;6.60;;
18162;SDS011;9206;50.994;4.538;2023-04-16T04:46:13;10.13;;;7.00;;
18162;SDS011;9206;50.994;4.538;2023-04-16T04:49:01;8.30;;;6.70;;
18162;SDS011;9206;50.994;4.538;2023-04-16T04:51:49;7.83;;;6.33;;
18162;SDS011;9206;50.994;4.538;2023-04-16T04:54:43;9.17;;;6.77;;
18162;SDS011;9206;50.994;4.538;2023-04-16T04:57:30;7.73;;;6.00;;
18162;SDS011;9206;50.994;4.538;2023-04-16T05:00:17;8.17;;;6.50;;
18162;SDS011;9206;50.994;4.538;2023-04-16T05:03:08;10.40;;;6.77;;
18162;SDS011;9206;50.994;4.538;2023-04-16T05:06:02;8.43;;;6.63;;
18162;SDS011;9206;50.994;4.538;2023-04-16T05:08:53;6.73;;;6.27;;
18162;SDS011;9206;50.994;4.538;2023-04-16T05:11:42;6.33;;;5.17;;
18162;SDS011;9206;50.994;4.538;2023-04-16T05:14:29;11.97;;;5.73;;
18162;SDS011;9206;50.994;4.538;2023-04-16T05:17:19;6.60;;;5.70;;
18162;SDS011;9206;50.994;4.538;2023-04-16T05:20:09;7.70;;;5.27;;
18162;SDS011;9206;50.994;4.538;2023-04-16T05:22:57;7.53;;;5.37;;
18162;SDS011;9206;50.994;4.538;2023-04-16T05:25:50;4.63;;;3.97;;
18162;SDS011;9206;50.994;4.538;2023-04-16T05:28:41;6.73;;;4.37;;
18162;SDS011;9206;50.994;4.538;2023-04-16T05:31:29;5.57;;;4.17;;
18162;SDS011;9206;50.994;4.538;2023-04-16T05:34:17;6.50;;;4.50;;
18162;SDS011;9206;50.994;4.538;2023-04-16T05:37:06;4.97;;;4.47;;
18162;SDS011;9206;50.994;4.538;2023-04-16T05:40:00;8.47;;;4.07;;
18162;SDS011;9206;50.994;4.538;2023-04-16T05:42:47;5.63;;;4.00;;
18162;SDS011;9206;50.994;4.538;2023-04-16T05:45:35;4.37;;;4.00;;
18162;SDS011;9206;50.994;4.538;2023-04-16T05:48:28;4.43;;;3.73;;
18162;SDS011;9206;50.994;4.538;2023-04-16T05:51:21;4.87;;;4.37;;
18162;SDS011;9206;50.994;4.538;2023-04-16T05:54:11;4.67;;;4.27;;
18162;SDS011;9206;50.994;4.538;2023-04-16T05:57:01;4.17;;;3.87;;
18162;SDS011;9206;50.994;4.538;2023-04-16T05:59:55;5.50;;;4.33;;
18162;SDS011;9206;50.994;4.538;2023-04-16T06:02:42;5.40;;;4.90;;
18162;SDS011;9206;50.994;4.538;2023-04-16T06:05:42;8.17;;;5.40;;
18162;SDS011;9206;50.994;4.538;2023-04-16T06:08:33;5.67;;;5.20;;
18162;SDS011;9206;50.994;4.538;2023-04-16T06:11:27;8.80;;;5.63;;
18162;SDS011;9206;50.994;4.538;2023-04-16T06:14:21;6.30;;;5.80;;
18162;SDS011;9206;50.994;4.538;2023-04-16T06:17:10;6.87;;;5.70;;
18162;SDS011;9206;50.994;4.538;2023-04-16T06:20:00;6.13;;;5.47;;
18162;SDS011;9206;50.994;4.538;2023-04-16T06:22:51;8.07;;;5.57;;
18162;SDS011;9206;50.994;4.538;2023-04-16T06:25:44;12.50;;;5.83;;
18162;SDS011;9206;50.994;4.538;2023-04-16T06:28:33;9.53;;;5.77;;
18162;SDS011;9206;50.994;4.538;2023-04-16T06:31:21;12.00;;;5.73;;
18162;SDS011;9206;50.994;4.538;2023-04-16T06:37:01;6.03;;;5.50;;
18162;SDS011;9206;50.994;4.538;2023-04-16T06:39:50;12.20;;;6.83;;
18162;SDS011;9206;50.994;4.538;2023-04-16T06:42:40;7.53;;;6.03;;
18162;SDS011;9206;50.994;4.538;2023-04-16T06:48:26;8.43;;;7.63;;
18162;SDS011;9206;50.994;4.538;2023-04-16T06:51:14;8.07;;;7.23;;
18162;SDS011;9206;50.994;4.538;2023-04-16T06:54:06;11.60;;;8.17;;
18162;SDS011;9206;50.994;4.538;2023-04-16T06:56:53;7.50;;;6.80;;
18162;SDS011;9206;50.994;4.538;2023-04-16T07:02:33;11.83;;;8.50;;
18162;SDS011;9206;50.994;4.538;2023-04-16T07:05:22;10.50;;;8.17;;
18162;SDS011;9206;50.994;4.538;2023-04-16T07:08:23;8.80;;;7.90;;
18162;SDS011;9206;50.994;4.538;2023-04-16T07:14:07;11.07;;;9.07;;
18162;SDS011;9206;50.994;4.538;2023-04-16T07:17:00;14.27;;;9.30;;
18162;SDS011;9206;50.994;4.538;2023-04-16T07:20:00;14.20;;;8.90;;
18162;SDS011;9206;50.994;4.538;2023-04-16T07:22:53;16.57;;;7.73;;
18162;SDS011;9206;50.994;4.538;2023-04-16T07:25:41;10.27;;;7.20;;
18162;SDS011;9206;50.994;4.538;2023-04-16T07:28:29;9.43;;;6.33;;
18162;SDS011;9206;50.994;4.538;2023-04-16T07:31:18;10.63;;;6.30;;
18162;SDS011;9206;50.994;4.538;2023-04-16T07:34:08;5.90;;;5.40;;
18162;SDS011;9206;50.994;4.538;2023-04-16T07:37:03;10.37;;;5.47;;
18162;SDS011;9206;50.994;4.538;2023-04-16T07:42:58;9.73;;;5.47;;
18162;SDS011;9206;50.994;4.538;2023-04-16T07:45:53;7.90;;;5.43;;
18162;SDS011;9206;50.994;4.538;2023-04-16T07:48:41;7.33;;;5.20;;
18162;SDS011;9206;50.994;4.538;2023-04-16T07:51:29;8.77;;;5.50;;
18162;SDS011;9206;50.994;4.538;2023-04-16T07:54:26;7.17;;;5.07;;
18162;SDS011;9206;50.994;4.538;2023-04-16T08:00:04;7.03;;;5.97;;
18162;SDS011;9206;50.994;4.538;2023-04-16T08:02:57;12.67;;;6.37;;
18162;SDS011;9206;50.994;4.538;2023-04-16T08:08:54;6.90;;;6.20;;
18162;SDS011;9206;50.994;4.538;2023-04-16T08:11:49;9.63;;;7.40;;
18162;SDS011;9206;50.994;4.538;2023-04-16T08:14:37;18.10;;;6.80;;
18162;SDS011;9206;50.994;4.538;2023-04-16T08:17:27;11.37;;;7.63;;
18162;SDS011;9206;50.994;4.538;2023-04-16T08:20:15;9.77;;;7.17;;
18162;SDS011;9206;50.994;4.538;2023-04-16T08:25:53;9.80;;;7.30;;
18162;SDS011;9206;50.994;4.538;2023-04-16T08:28:41;13.03;;;8.30;;
18162;SDS011;9206;50.994;4.538;2023-04-16T08:31:32;14.37;;;8.60;;
18162;SDS011;9206;50.994;4.538;2023-04-16T08:34:19;18.30;;;9.07;;
18162;SDS011;9206;50.994;4.538;2023-04-16T08:37:08;13.37;;;8.70;;
18162;SDS011;9206;50.994;4.538;2023-04-16T08:39:56;8.77;;;7.87;;
18162;SDS011;9206;50.994;4.538;2023-04-16T08:42:57;10.97;;;8.17;;
18162;SDS011;9206;50.994;4.538;2023-04-16T08:45:53;16.17;;;8.43;;
18162;SDS011;9206;50.994;4.538;2023-04-16T08:48:41;17.97;;;8.07;;
18162;SDS011;9206;50.994;4.538;2023-04-16T08:51:35;12.27;;;8.60;;
18162;SDS011;9206;50.994;4.538;2023-04-16T08:54:37;11.00;;;8.90;;
18162;SDS011;9206;50.994;4.538;2023-04-16T08:57:38;15.77;;;8.97;;
18162;SDS011;9206;50.994;4.538;2023-04-16T09:00:36;11.17;;;8.90;;
18162;SDS011;9206;50.994;4.538;2023-04-16T09:03:32;10.50;;;8.40;;
18162;SDS011;9206;50.994;4.538;2023-04-16T09:06:25;15.67;;;9.10;;
18162;SDS011;9206;50.994;4.538;2023-04-16T09:09:15;12.00;;;9.27;;
18162;SDS011;9206;50.994;4.538;2023-04-16T09:12:04;15.27;;;9.10;;
18162;SDS011;9206;50.994;4.538;2023-04-16T09:14:55;14.87;;;9.07;;
18162;SDS011;9206;50.994;4.538;2023-04-16T09:17:44;15.03;;;9.17;;
18162;SDS011;9206;50.994;4.538;2023-04-16T09:20:38;15.87;;;8.90;;
18162;SDS011;9206;50.994;4.538;2023-04-16T09:23:28;13.07;;;8.77;;
18162;SDS011;9206;50.994;4.538;2023-04-16T09:26:16;17.77;;;9.73;;
18162;SDS011;9206;50.994;4.538;2023-04-16T09:29:04;13.77;;;9.10;;
18162;SDS011;9206;50.994;4.538;2023-04-16T09:32:00;16.20;;;9.60;;
18162;SDS011;9206;50.994;4.538;2023-04-16T09:34:56;16.87;;;9.57;;
18162;SDS011;9206;50.994;4.538;2023-04-16T09:37:55;14.07;;;9.57;;
18162;SDS011;9206;50.994;4.538;2023-04-16T09:40:43;23.33;;;10.27;;
18162;SDS011;9206;50.994;4.538;2023-04-16T09:43:31;13.03;;;9.13;;
18162;SDS011;9206;50.994;4.538;2023-04-16T09:46:20;14.93;;;9.83;;
18162;SDS011;9206;50.994;4.538;2023-04-16T09:49:07;15.20;;;9.47;;
18162;SDS011;9206;50.994;4.538;2023-04-16T09:51:55;17.33;;;9.57;;
18162;SDS011;9206;50.994;4.538;2023-04-16T09:54:49;10.50;;;8.83;;
18162;SDS011;9206;50.994;4.538;2023-04-16T09:57:43;13.77;;;9.50;;
18162;SDS011;9206;50.994;4.538;2023-04-16T10:00:32;15.23;;;9.57;;
18162;SDS011;9206;50.994;4.538;2023-04-16T10:03:27;19.57;;;11.20;;
18162;SDS011;9206;50.994;4.538;2023-04-16T10:06:16;13.83;;;9.23;;
18162;SDS011;9206;50.994;4.538;2023-04-16T10:09:14;15.63;;;9.67;;
18162;SDS011;9206;50.994;4.538;2023-04-16T10:12:03;14.67;;;8.80;;
18162;SDS011;9206;50.994;4.538;2023-04-16T10:14:57;11.00;;;8.57;;
18162;SDS011;9206;50.994;4.538;2023-04-16T10:17:46;15.17;;;10.03;;
18162;SDS011;9206;50.994;4.538;2023-04-16T10:20:35;26.90;;;11.60;;
18162;SDS011;9206;50.994;4.538;2023-04-16T10:23:23;13.07;;;8.63;;
18162;SDS011;9206;50.994;4.538;2023-04-16T10:26:11;16.90;;;8.90;;
18162;SDS011;9206;50.994;4.538;2023-04-16T10:29:01;17.00;;;10.13;;
18162;SDS011;9206;50.994;4.538;2023-04-16T10:31:50;13.10;;;8.40;;
18162;SDS011;9206;50.994;4.538;2023-04-16T10:34:45;12.63;;;8.00;;
18162;SDS011;9206;50.994;4.538;2023-04-16T10:40:26;12.63;;;8.03;;
18162;SDS011;9206;50.994;4.538;2023-04-16T10:43:16;9.60;;;8.23;;
18162;SDS011;9206;50.994;4.538;2023-04-16T10:46:20;16.33;;;8.40;;
18162;SDS011;9206;50.994;4.538;2023-04-16T10:49:12;10.67;;;8.60;;
18162;SDS011;9206;50.994;4.538;2023-04-16T10:52:07;17.53;;;8.40;;
18162;SDS011;9206;50.994;4.538;2023-04-16T10:55:01;15.00;;;8.67;;
18162;SDS011;9206;50.994;4.538;2023-04-16T10:57:55;19.80;;;8.00;;
18162;SDS011;9206;50.994;4.538;2023-04-16T11:00:50;14.00;;;8.30;;
18162;SDS011;9206;50.994;4.538;2023-04-16T11:03:49;12.63;;;8.73;;
18162;SDS011;9206;50.994;4.538;2023-04-16T11:07:03;15.83;;;9.07;;
18162;SDS011;9206;50.994;4.538;2023-04-16T11:09:54;15.03;;;9.10;;
18162;SDS011;9206;50.994;4.538;2023-04-16T11:12:48;14.90;;;8.97;;
18162;SDS011;9206;50.994;4.538;2023-04-16T11:15:55;13.83;;;8.57;;
18162;SDS011;9206;50.994;4.538;2023-04-16T11:18:44;15.00;;;8.53;;
18162;SDS011;9206;50.994;4.538;2023-04-16T11:21:35;16.27;;;8.50;;
18162;SDS011;9206;50.994;4.538;2023-04-16T11:24:28;13.10;;;8.90;;
18162;SDS011;9206;50.994;4.538;2023-04-16T11:27:22;16.23;;;8.87;;
18162;SDS011;9206;50.994;4.538;2023-04-16T11:30:26;16.87;;;9.70;;
18162;SDS011;9206;50.994;4.538;2023-04-16T11:33:17;9.80;;;8.90;;
18162;SDS011;9206;50.994;4.538;2023-04-16T11:36:10;11.10;;;9.70;;
18162;SDS011;9206;50.994;4.538;2023-04-16T11:39:12;16.57;;;10.57;;
18162;SDS011;9206;50.994;4.538;2023-04-16T11:49:51;10.63;;;9.50;;
18162;SDS011;9206;50.994;4.538;2023-04-16T11:52:45;15.57;;;9.53;;
18162;SDS011;9206;50.994;4.538;2023-04-16T11:55:43;13.23;;;9.80;;
18162;SDS011;9206;50.994;4.538;2023-04-16T11:58:32;14.27;;;9.93;;
18162;SDS011;9206;50.994;4.538;2023-04-16T12:01:23;15.77;;;9.90;;
18162;SDS011;9206;50.994;4.538;2023-04-16T12:04:12;10.77;;;9.67;;
18162;SDS011;9206;50.994;4.538;2023-04-16T12:07:06;14.40;;;9.77;;
18162;SDS011;9206;50.994;4.538;2023-04-16T12:10:03;10.87;;;9.73;;
18162;SDS011;9206;50.994;4.538;2023-04-16T12:16:01;12.30;;;9.40;;
18162;SDS011;9206;50.994;4.538;2023-04-16T12:19:10;13.10;;;9.87;;
18162;SDS011;9206;50.994;4.538;2023-04-16T12:22:01;15.40;;;10.50;;
18162;SDS011;9206;50.994;4.538;2023-04-16T12:28:04;15.13;;;10.20;;
18162;SDS011;9206;50.994;4.538;2023-04-16T12:31:00;15.70;;;10.00;;
18162;SDS011;9206;50.994;4.538;2023-04-16T12:37:29;11.07;;;9.63;;
18162;SDS011;9206;50.994;4.538;2023-04-16T12:40:28;15.13;;;9.70;;
18162;SDS011;9206;50.994;4.538;2023-04-16T12:46:34;21.10;;;9.33;;
18162;SDS011;9206;50.994;4.538;2023-04-16T12:49:25;9.90;;;8.43;;
18162;SDS011;9206;50.994;4.538;2023-04-16T12:52:18;9.77;;;8.87;;
18162;SDS011;9206;50.994;4.538;2023-04-16T12:55:06;9.77;;;8.77;;
18162;SDS011;9206;50.994;4.538;2023-04-16T12:57:54;9.70;;;8.70;;
18162;SDS011;9206;50.994;4.538;2023-04-16T13:00:48;14.27;;;9.90;;
18162;SDS011;9206;50.994;4.538;2023-04-16T13:03:41;11.33;;;8.53;;
18162;SDS011;9206;50.994;4.538;2023-04-16T13:06:35;14.93;;;9.30;;
18162;SDS011;9206;50.994;4.538;2023-04-16T13:09:24;13.73;;;9.20;;
18162;SDS011;9206;50.994;4.538;2023-04-16T13:12:31;11.37;;;8.83;;
18162;SDS011;9206;50.994;4.538;2023-04-16T13:15:19;12.80;;;9.23;;
18162;SDS011;9206;50.994;4.538;2023-04-16T13:18:14;16.23;;;9.03;;
18162;SDS011;9206;50.994;4.538;2023-04-16T13:21:02;10.17;;;8.60;;
18162;SDS011;9206;50.994;4.538;2023-04-16T13:23:52;10.10;;;9.00;;
18162;SDS011;9206;50.994;4.538;2023-04-16T13:26:40;14.07;;;8.67;;
18162;SDS011;9206;50.994;4.538;2023-04-16T13:29:27;14.07;;;8.47;;
18162;SDS011;9206;50.994;4.538;2023-04-16T13:32:17;9.37;;;8.50;;
18162;SDS011;9206;50.994;4.538;2023-04-16T13:35:12;13.90;;;8.37;;
18162;SDS011;9206;50.994;4.538;2023-04-16T13:38:05;14.07;;;7.87;;
18162;SDS011;9206;50.994;4.538;2023-04-16T13:40:53;9.37;;;7.87;;
18162;SDS011;9206;50.994;4.538;2023-04-16T13:43:41;12.57;;;8.70;;
18162;SDS011;9206;50.994;4.538;2023-04-16T13:46:30;9.07;;;8.27;;
18162;SDS011;9206;50.994;4.538;2023-04-16T13:49:19;9.30;;;8.13;;
18162;SDS011;9206;50.994;4.538;2023-04-16T13:52:08;11.37;;;8.03;;
18162;SDS011;9206;50.994;4.538;2023-04-16T13:54:57;8.23;;;7.43;;
18162;SDS011;9206;50.994;4.538;2023-04-16T13:57:46;9.97;;;7.77;;
18162;SDS011;9206;50.994;4.538;2023-04-16T14:00:37;7.80;;;7.30;;
18162;SDS011;9206;50.994;4.538;2023-04-16T14:03:24;10.73;;;7.33;;
18162;SDS011;9206;50.994;4.538;2023-04-16T14:06:13;9.30;;;8.43;;
18162;SDS011;9206;50.994;4.538;2023-04-16T14:09:03;13.17;;;8.40;;
18162;SDS011;9206;50.994;4.538;2023-04-16T14:11:54;10.83;;;8.37;;
18162;SDS011;9206;50.994;4.538;2023-04-16T14:14:47;11.60;;;8.70;;
18162;SDS011;9206;50.994;4.538;2023-04-16T14:17:38;8.83;;;7.87;;
18162;SDS011;9206;50.994;4.538;2023-04-16T14:20:25;11.67;;;7.97;;
18162;SDS011;9206;50.994;4.538;2023-04-16T14:23:18;12.63;;;8.60;;
18162;SDS011;9206;50.994;4.538;2023-04-16T14:26:07;10.20;;;8.93;;
18162;SDS011;9206;50.994;4.538;2023-04-16T14:28:55;14.87;;;8.23;;
18162;SDS011;9206;50.994;4.538;2023-04-16T14:31:43;9.37;;;8.33;;
18162;SDS011;9206;50.994;4.538;2023-04-16T14:34:30;13.10;;;9.40;;
18162;SDS011;9206;50.994;4.538;2023-04-16T14:37:20;14.27;;;8.57;;
18162;SDS011;9206;50.994;4.538;2023-04-16T14:40:07;10.03;;;8.90;;
18162;SDS011;9206;50.994;4.538;2023-04-16T14:43:04;11.10;;;8.40;;
18162;SDS011;9206;50.994;4.538;2023-04-16T14:45:53;9.43;;;8.50;;
18162;SDS011;9206;50.994;4.538;2023-04-16T14:48:48;10.67;;;8.60;;
18162;SDS011;9206;50.994;4.538;2023-04-16T14:51:37;10.53;;;8.33;;
18162;SDS011;9206;50.994;4.538;2023-04-16T14:54:26;15.67;;;8.80;;
18162;SDS011;9206;50.994;4.538;2023-04-16T14:57:15;12.67;;;8.97;;
18162;SDS011;9206;50.994;4.538;2023-04-16T15:00:04;10.50;;;9.03;;
18162;SDS011;9206;50.994;4.538;2023-04-16T15:02:54;13.43;;;8.87;;
18162;SDS011;9206;50.994;4.538;2023-04-16T15:05:48;12.20;;;9.07;;
18162;SDS011;9206;50.994;4.538;2023-04-16T15:08:45;11.40;;;10.30;;
18162;SDS011;9206;50.994;4.538;2023-04-16T15:11:32;10.83;;;9.27;;
18162;SDS011;9206;50.994;4.538;2023-04-16T15:14:20;10.73;;;9.53;;
18162;SDS011;9206;50.994;4.538;2023-04-16T15:17:08;10.83;;;9.53;;
18162;SDS011;9206;50.994;4.538;2023-04-16T15:19:56;10.53;;;9.57;;
18162;SDS011;9206;50.994;4.538;2023-04-16T15:22:44;13.77;;;9.77;;
18162;SDS011;9206;50.994;4.538;2023-04-16T15:25:34;13.87;;;11.03;;
18162;SDS011;9206;50.994;4.538;2023-04-16T15:28:24;13.00;;;11.73;;
18162;SDS011;9206;50.994;4.538;2023-04-16T15:31:17;12.27;;;11.07;;
18162;SDS011;9206;50.994;4.538;2023-04-16T15:34:07;13.03;;;10.17;;
18162;SDS011;9206;50.994;4.538;2023-04-16T15:37:00;14.90;;;11.53;;
18162;SDS011;9206;50.994;4.538;2023-04-16T15:39:50;11.37;;;9.47;;
18162;SDS011;9206;50.994;4.538;2023-04-16T15:42:38;10.83;;;9.73;;
18162;SDS011;9206;50.994;4.538;2023-04-16T15:48:37;11.00;;;9.33;;
18162;SDS011;9206;50.994;4.538;2023-04-16T15:51:29;12.50;;;9.93;;
18162;SDS011;9206;50.994;4.538;2023-04-16T15:54:19;10.57;;;9.37;;
18162;SDS011;9206;50.994;4.538;2023-04-16T15:57:06;10.00;;;9.00;;
18162;SDS011;9206;50.994;4.538;2023-04-16T15:59:56;14.50;;;9.60;;
18162;SDS011;9206;50.994;4.538;2023-04-16T16:02:50;12.47;;;10.50;;
18162;SDS011;9206;50.994;4.538;2023-04-16T16:05:40;14.30;;;9.73;;
18162;SDS011;9206;50.994;4.538;2023-04-16T16:08:35;12.80;;;10.03;;
18162;SDS011;9206;50.994;4.538;2023-04-16T16:11:25;15.93;;;11.10;;
18162;SDS011;9206;50.994;4.538;2023-04-16T16:14:19;11.90;;;10.73;;
18162;SDS011;9206;50.994;4.538;2023-04-16T16:17:07;13.50;;;11.40;;
18162;SDS011;9206;50.994;4.538;2023-04-16T16:19:54;12.47;;;11.30;;
18162;SDS011;9206;50.994;4.538;2023-04-16T16:22:52;16.60;;;10.93;;
18162;SDS011;9206;50.994;4.538;2023-04-16T16:25:57;12.50;;;11.40;;
18162;SDS011;9206;50.994;4.538;2023-04-16T16:28:56;15.07;;;12.07;;
18162;SDS011;9206;50.994;4.538;2023-04-16T16:31:49;18.80;;;11.87;;
18162;SDS011;9206;50.994;4.538;2023-04-16T16:34:39;14.57;;;11.80;;
18162;SDS011;9206;50.994;4.538;2023-04-16T16:37:30;18.67;;;13.33;;
18162;SDS011;9206;50.994;4.538;2023-04-16T16:40:18;20.57;;;15.20;;
18162;SDS011;9206;50.994;4.538;2023-04-16T16:43:15;15.03;;;13.07;;
18162;SDS011;9206;50.994;4.538;2023-04-16T16:46:04;13.77;;;12.43;;
18162;SDS011;9206;50.994;4.538;2023-04-16T16:48:54;20.37;;;13.60;;
18162;SDS011;9206;50.994;4.538;2023-04-16T16:51:43;19.60;;;13.27;;
18162;SDS011;9206;50.994;4.538;2023-04-16T16:54:34;16.07;;;12.33;;
18162;SDS011;9206;50.994;4.538;2023-04-16T16:57:23;13.57;;;12.20;;
18162;SDS011;9206;50.994;4.538;2023-04-16T17:00:13;15.83;;;11.73;;
18162;SDS011;9206;50.994;4.538;2023-04-16T17:03:04;19.17;;;12.10;;
18162;SDS011;9206;50.994;4.538;2023-04-16T17:05:55;12.83;;;11.40;;
18162;SDS011;9206;50.994;4.538;2023-04-16T17:08:43;17.70;;;12.30;;
18162;SDS011;9206;50.994;4.538;2023-04-16T17:11:32;12.53;;;11.30;;
18162;SDS011;9206;50.994;4.538;2023-04-16T17:14:22;12.60;;;11.40;;
18162;SDS011;9206;50.994;4.538;2023-04-16T17:20:02;20.73;;;11.63;;
18162;SDS011;9206;50.994;4.538;2023-04-16T17:22:55;12.07;;;10.67;;
18162;SDS011;9206;50.994;4.538;2023-04-16T17:25:54;12.53;;;11.40;;
18162;SDS011;9206;50.994;4.538;2023-04-16T17:28:46;14.47;;;11.67;;
18162;SDS011;9206;50.994;4.538;2023-04-16T17:31:35;27.97;;;17.30;;
18162;SDS011;9206;50.994;4.538;2023-04-16T17:34:23;24.03;;;14.83;;
18162;SDS011;9206;50.994;4.538;2023-04-16T17:37:17;15.07;;;11.63;;
18162;SDS011;9206;50.994;4.538;2023-04-16T17:40:07;15.27;;;13.70;;
18162;SDS011;9206;50.994;4.538;2023-04-16T17:43:02;13.50;;;12.10;;
18162;SDS011;9206;50.994;4.538;2023-04-16T17:45:50;12.00;;;11.00;;
18162;SDS011;9206;50.994;4.538;2023-04-16T17:48:37;14.40;;;12.80;;
18162;SDS011;9206;50.994;4.538;2023-04-16T17:51:26;14.10;;;12.73;;
18162;SDS011;9206;50.994;4.538;2023-04-16T17:54:16;15.97;;;12.73;;
18162;SDS011;9206;50.994;4.538;2023-04-16T17:57:03;18.53;;;13.40;;
18162;SDS011;9206;50.994;4.538;2023-04-16T17:59:50;15.50;;;12.97;;
18162;SDS011;9206;50.994;4.538;2023-04-16T18:02:40;18.17;;;13.63;;
18162;SDS011;9206;50.994;4.538;2023-04-16T18:05:28;16.67;;;13.80;;
18162;SDS011;9206;50.994;4.538;2023-04-16T18:08:21;16.50;;;13.10;;
18162;SDS011;9206;50.994;4.538;2023-04-16T18:11:15;15.03;;;13.43;;
18162;SDS011;9206;50.994;4.538;2023-04-16T18:14:12;20.33;;;14.77;;
18162;SDS011;9206;50.994;4.538;2023-04-16T18:21:07;16.73;;;13.53;;
18162;SDS011;9206;50.994;4.538;2023-04-16T18:24:21;17.10;;;13.63;;